sensor_id;sensor_type;location;lat;lon;timestamp;P1;durP1;ratioP1;P2;durP2;ratioP2
59014;SDS011;44799;53.382;14.666;2022-12-24T00:01:39;18.35;;;8.52;;
59014;SDS011;44799;53.382;14.666;2022-12-24T00:04:09;14.18;;;6.47;;
59014;SDS011;44799;53.382;14.666;2022-12-24T00:06:35;13.38;;;7.05;;
59014;SDS011;44799;53.382;14.666;2022-12-24T00:09:10;13.82;;;6.82;;
59014;SDS011;44799;53.382;14.666;2022-12-24T00:12:11;15.65;;;7.18;;
59014;SDS011;44799;53.382;14.666;2022-12-24T00:14:46;13.50;;;5.90;;
59014;SDS011;44799;53.382;14.666;2022-12-24T00:17:19;14.05;;;6.30;;
59014;SDS011;44799;53.382;14.666;2022-12-24T00:19:49;13.05;;;6.35;;
59014;SDS011;44799;53.382;14.666;2022-12-24T00:22:18;14.10;;;7.20;;
59014;SDS011;44799;53.382;14.666;2022-12-24T00:24:44;15.93;;;7.72;;
59014;SDS011;44799;53.382;14.666;2022-12-24T00:27:10;17.77;;;6.57;;
59014;SDS011;44799;53.382;14.666;2022-12-24T00:29:41;13.93;;;7.15;;
59014;SDS011;44799;53.382;14.666;2022-12-24T00:32:14;15.63;;;6.05;;
59014;SDS011;44799;53.382;14.666;2022-12-24T00:34:45;13.63;;;7.65;;
59014;SDS011;44799;53.382;14.666;2022-12-24T00:37:11;16.90;;;6.97;;
59014;SDS011;44799;53.382;14.666;2022-12-24T00:39:37;16.17;;;8.88;;
59014;SDS011;44799;53.382;14.666;2022-12-24T00:42:03;16.30;;;6.93;;
59014;SDS011;44799;53.382;14.666;2022-12-24T00:44:29;15.15;;;7.70;;
59014;SDS011;44799;53.382;14.666;2022-12-24T00:46:55;14.88;;;7.75;;
59014;SDS011;44799;53.382;14.666;2022-12-24T00:49:22;16.27;;;7.38;;
59014;SDS011;44799;53.382;14.666;2022-12-24T00:51:48;12.32;;;6.20;;
59014;SDS011;44799;53.382;14.666;2022-12-24T00:54:17;11.07;;;5.70;;
59014;SDS011;44799;53.382;14.666;2022-12-24T00:56:43;12.35;;;6.68;;
59014;SDS011;44799;53.382;14.666;2022-12-24T00:59:09;12.90;;;6.47;;
59014;SDS011;44799;53.382;14.666;2022-12-24T01:01:35;12.65;;;6.07;;
59014;SDS011;44799;53.382;14.666;2022-12-24T01:04:01;9.45;;;5.15;;
59014;SDS011;44799;53.382;14.666;2022-12-24T01:06:46;10.63;;;4.95;;
59014;SDS011;44799;53.382;14.666;2022-12-24T01:09:15;7.18;;;4.38;;
59014;SDS011;44799;53.382;14.666;2022-12-24T01:11:41;6.13;;;4.25;;
59014;SDS011;44799;53.382;14.666;2022-12-24T01:14:07;11.07;;;4.10;;
59014;SDS011;44799;53.382;14.666;2022-12-24T01:16:33;6.38;;;3.92;;
59014;SDS011;44799;53.382;14.666;2022-12-24T01:18:59;6.90;;;4.35;;
59014;SDS011;44799;53.382;14.666;2022-12-24T01:21:25;9.07;;;3.60;;
59014;SDS011;44799;53.382;14.666;2022-12-24T01:23:51;9.30;;;3.97;;
59014;SDS011;44799;53.382;14.666;2022-12-24T01:26:17;7.82;;;3.85;;
59014;SDS011;44799;53.382;14.666;2022-12-24T01:28:44;7.70;;;3.38;;
59014;SDS011;44799;53.382;14.666;2022-12-24T01:31:13;6.93;;;3.13;;
59014;SDS011;44799;53.382;14.666;2022-12-24T01:33:41;6.00;;;3.40;;
59014;SDS011;44799;53.382;14.666;2022-12-24T01:36:08;9.68;;;4.07;;
59014;SDS011;44799;53.382;14.666;2022-12-24T01:38:36;6.63;;;3.65;;
59014;SDS011;44799;53.382;14.666;2022-12-24T01:41:03;9.98;;;3.75;;
59014;SDS011;44799;53.382;14.666;2022-12-24T01:43:47;8.35;;;4.35;;
59014;SDS011;44799;53.382;14.666;2022-12-24T01:46:18;6.00;;;2.88;;
59014;SDS011;44799;53.382;14.666;2022-12-24T01:48:53;6.53;;;3.70;;
59014;SDS011;44799;53.382;14.666;2022-12-24T01:53:52;6.00;;;3.05;;
59014;SDS011;44799;53.382;14.666;2022-12-24T01:56:26;4.38;;;2.28;;
59014;SDS011;44799;53.382;14.666;2022-12-24T01:58:54;6.13;;;2.58;;
59014;SDS011;44799;53.382;14.666;2022-12-24T02:01:24;7.88;;;3.30;;
59014;SDS011;44799;53.382;14.666;2022-12-24T02:03:50;7.30;;;2.95;;
59014;SDS011;44799;53.382;14.666;2022-12-24T02:06:16;7.53;;;3.15;;
59014;SDS011;44799;53.382;14.666;2022-12-24T02:08:45;4.85;;;2.67;;
59014;SDS011;44799;53.382;14.666;2022-12-24T02:11:15;7.05;;;2.63;;
59014;SDS011;44799;53.382;14.666;2022-12-24T02:13:44;7.75;;;2.58;;
59014;SDS011;44799;53.382;14.666;2022-12-24T02:16:21;3.50;;;2.42;;
59014;SDS011;44799;53.382;14.666;2022-12-24T02:24:42;6.28;;;2.67;;
59014;SDS011;44799;53.382;14.666;2022-12-24T02:27:29;5.05;;;2.97;;
59014;SDS011;44799;53.382;14.666;2022-12-24T02:30:21;3.20;;;1.90;;
59014;SDS011;44799;53.382;14.666;2022-12-24T02:35:56;6.38;;;3.13;;
59014;SDS011;44799;53.382;14.666;2022-12-24T02:38:47;5.30;;;3.28;;
59014;SDS011;44799;53.382;14.666;2022-12-24T02:41:21;6.47;;;3.33;;
59014;SDS011;44799;53.382;14.666;2022-12-24T02:43:50;5.78;;;2.92;;
59014;SDS011;44799;53.382;14.666;2022-12-24T02:46:20;6.00;;;3.17;;
59014;SDS011;44799;53.382;14.666;2022-12-24T02:48:51;6.75;;;3.78;;
59014;SDS011;44799;53.382;14.666;2022-12-24T02:51:22;3.28;;;2.28;;
59014;SDS011;44799;53.382;14.666;2022-12-24T02:53:48;6.28;;;2.60;;
59014;SDS011;44799;53.382;14.666;2022-12-24T02:56:32;4.75;;;2.40;;
59014;SDS011;44799;53.382;14.666;2022-12-24T03:01:56;3.07;;;2.03;;
59014;SDS011;44799;53.382;14.666;2022-12-24T03:12:35;3.53;;;2.33;;
59014;SDS011;44799;53.382;14.666;2022-12-24T03:15:06;6.10;;;3.40;;
59014;SDS011;44799;53.382;14.666;2022-12-24T03:17:33;7.47;;;2.85;;
59014;SDS011;44799;53.382;14.666;2022-12-24T03:20:02;4.60;;;2.92;;
59014;SDS011;44799;53.382;14.666;2022-12-24T03:22:30;3.47;;;2.78;;
59014;SDS011;44799;53.382;14.666;2022-12-24T03:24:58;5.28;;;2.40;;
59014;SDS011;44799;53.382;14.666;2022-12-24T03:27:26;11.07;;;3.00;;
59014;SDS011;44799;53.382;14.666;2022-12-24T03:29:54;4.25;;;2.58;;
59014;SDS011;44799;53.382;14.666;2022-12-24T03:32:27;7.07;;;3.25;;
59014;SDS011;44799;53.382;14.666;2022-12-24T03:37:20;8.05;;;3.60;;
59014;SDS011;44799;53.382;14.666;2022-12-24T03:39:46;5.97;;;3.08;;
59014;SDS011;44799;53.382;14.666;2022-12-24T03:42:12;7.88;;;4.53;;
59014;SDS011;44799;53.382;14.666;2022-12-24T03:44:38;8.68;;;3.95;;
59014;SDS011;44799;53.382;14.666;2022-12-24T03:47:04;6.70;;;3.95;;
59014;SDS011;44799;53.382;14.666;2022-12-24T03:49:30;7.82;;;4.15;;
59014;SDS011;44799;53.382;14.666;2022-12-24T03:51:56;6.30;;;3.58;;
59014;SDS011;44799;53.382;14.666;2022-12-24T03:54:22;6.55;;;3.50;;
59014;SDS011;44799;53.382;14.666;2022-12-24T03:56:47;5.45;;;3.55;;
59014;SDS011;44799;53.382;14.666;2022-12-24T03:59:13;5.13;;;2.97;;
59014;SDS011;44799;53.382;14.666;2022-12-24T04:01:39;10.13;;;4.18;;
59014;SDS011;44799;53.382;14.666;2022-12-24T04:04:05;9.52;;;4.25;;
59014;SDS011;44799;53.382;14.666;2022-12-24T04:06:31;3.90;;;3.58;;
59014;SDS011;44799;53.382;14.666;2022-12-24T04:08:57;5.40;;;3.97;;
59014;SDS011;44799;53.382;14.666;2022-12-24T04:11:25;8.23;;;4.22;;
59014;SDS011;44799;53.382;14.666;2022-12-24T04:13:51;8.25;;;3.33;;
59014;SDS011;44799;53.382;14.666;2022-12-24T04:16:17;8.48;;;4.20;;
59014;SDS011;44799;53.382;14.666;2022-12-24T04:18:43;6.28;;;3.00;;
59014;SDS011;44799;53.382;14.666;2022-12-24T04:21:09;5.90;;;3.10;;
59014;SDS011;44799;53.382;14.666;2022-12-24T04:23:35;5.22;;;3.08;;
59014;SDS011;44799;53.382;14.666;2022-12-24T04:26:04;4.53;;;2.95;;
59014;SDS011;44799;53.382;14.666;2022-12-24T04:28:31;6.80;;;3.67;;
59014;SDS011;44799;53.382;14.666;2022-12-24T04:30:58;4.15;;;3.13;;
59014;SDS011;44799;53.382;14.666;2022-12-24T04:33:25;5.82;;;3.03;;
59014;SDS011;44799;53.382;14.666;2022-12-24T04:35:52;9.93;;;4.60;;
59014;SDS011;44799;53.382;14.666;2022-12-24T04:38:18;4.85;;;3.65;;
59014;SDS011;44799;53.382;14.666;2022-12-24T04:40:44;7.93;;;3.45;;
59014;SDS011;44799;53.382;14.666;2022-12-24T04:43:10;7.30;;;4.50;;
59014;SDS011;44799;53.382;14.666;2022-12-24T04:45:36;7.30;;;2.80;;
59014;SDS011;44799;53.382;14.666;2022-12-24T04:48:02;8.90;;;3.70;;
59014;SDS011;44799;53.382;14.666;2022-12-24T04:50:28;4.85;;;2.53;;
59014;SDS011;44799;53.382;14.666;2022-12-24T04:52:57;8.40;;;3.50;;
59014;SDS011;44799;53.382;14.666;2022-12-24T04:55:23;3.97;;;3.00;;
59014;SDS011;44799;53.382;14.666;2022-12-24T04:57:49;5.32;;;3.45;;
59014;SDS011;44799;53.382;14.666;2022-12-24T05:00:15;6.68;;;3.05;;
59014;SDS011;44799;53.382;14.666;2022-12-24T05:02:41;6.65;;;3.83;;
59014;SDS011;44799;53.382;14.666;2022-12-24T05:05:07;5.60;;;3.63;;
59014;SDS011;44799;53.382;14.666;2022-12-24T05:07:33;5.70;;;2.85;;
59014;SDS011;44799;53.382;14.666;2022-12-24T05:09:59;5.05;;;3.70;;
59014;SDS011;44799;53.382;14.666;2022-12-24T05:12:25;5.20;;;3.17;;
59014;SDS011;44799;53.382;14.666;2022-12-24T05:14:50;3.50;;;3.05;;
59014;SDS011;44799;53.382;14.666;2022-12-24T05:17:16;7.90;;;4.20;;
59014;SDS011;44799;53.382;14.666;2022-12-24T05:19:42;6.82;;;3.63;;
59014;SDS011;44799;53.382;14.666;2022-12-24T05:22:08;6.28;;;4.10;;
59014;SDS011;44799;53.382;14.666;2022-12-24T05:24:52;6.90;;;3.80;;
59014;SDS011;44799;53.382;14.666;2022-12-24T05:27:36;3.97;;;2.35;;
59014;SDS011;44799;53.382;14.666;2022-12-24T05:30:02;8.13;;;3.10;;
59014;SDS011;44799;53.382;14.666;2022-12-24T05:32:29;10.65;;;3.95;;
59014;SDS011;44799;53.382;14.666;2022-12-24T05:34:54;7.45;;;3.50;;
59014;SDS011;44799;53.382;14.666;2022-12-24T05:37:20;5.75;;;3.72;;
59014;SDS011;44799;53.382;14.666;2022-12-24T05:39:46;5.97;;;3.97;;
59014;SDS011;44799;53.382;14.666;2022-12-24T05:42:12;12.73;;;3.40;;
59014;SDS011;44799;53.382;14.666;2022-12-24T05:44:38;4.18;;;1.92;;
59014;SDS011;44799;53.382;14.666;2022-12-24T05:47:04;5.82;;;2.92;;
59014;SDS011;44799;53.382;14.666;2022-12-24T05:49:30;6.43;;;3.55;;
59014;SDS011;44799;53.382;14.666;2022-12-24T05:51:56;8.48;;;4.15;;
59014;SDS011;44799;53.382;14.666;2022-12-24T05:54:22;0.68;;;0.68;;
59014;SDS011;44799;53.382;14.666;2022-12-24T05:56:48;2.55;;;2.33;;
59014;SDS011;44799;53.382;14.666;2022-12-24T05:59:13;5.50;;;3.72;;
59014;SDS011;44799;53.382;14.666;2022-12-24T06:01:39;2.97;;;2.38;;
59014;SDS011;44799;53.382;14.666;2022-12-24T06:04:09;3.13;;;2.92;;
59014;SDS011;44799;53.382;14.666;2022-12-24T06:06:35;4.75;;;3.10;;
59014;SDS011;44799;53.382;14.666;2022-12-24T06:09:03;4.35;;;2.42;;
59014;SDS011;44799;53.382;14.666;2022-12-24T06:11:29;5.18;;;3.00;;
59014;SDS011;44799;53.382;14.666;2022-12-24T06:13:55;5.55;;;3.30;;
59014;SDS011;44799;53.382;14.666;2022-12-24T06:16:21;5.63;;;3.00;;
59014;SDS011;44799;53.382;14.666;2022-12-24T06:18:49;5.70;;;3.00;;
59014;SDS011;44799;53.382;14.666;2022-12-24T06:21:15;4.60;;;2.95;;
59014;SDS011;44799;53.382;14.666;2022-12-24T06:23:42;5.82;;;3.28;;
59014;SDS011;44799;53.382;14.666;2022-12-24T06:26:10;4.05;;;3.25;;
59014;SDS011;44799;53.382;14.666;2022-12-24T06:28:38;3.17;;;2.85;;
59014;SDS011;44799;53.382;14.666;2022-12-24T06:31:04;5.00;;;2.60;;
59014;SDS011;44799;53.382;14.666;2022-12-24T06:33:31;6.65;;;3.22;;
59014;SDS011;44799;53.382;14.666;2022-12-24T06:35:58;3.42;;;2.70;;
59014;SDS011;44799;53.382;14.666;2022-12-24T06:38:24;10.75;;;3.50;;
59014;SDS011;44799;53.382;14.666;2022-12-24T06:40:50;7.95;;;4.95;;
59014;SDS011;44799;53.382;14.666;2022-12-24T06:43:16;10.70;;;3.50;;
59014;SDS011;44799;53.382;14.666;2022-12-24T06:45:46;6.35;;;3.67;;
59014;SDS011;44799;53.382;14.666;2022-12-24T06:48:12;2.92;;;2.47;;
59014;SDS011;44799;53.382;14.666;2022-12-24T06:50:39;4.15;;;3.25;;
59014;SDS011;44799;53.382;14.666;2022-12-24T06:53:06;9.98;;;4.97;;
59014;SDS011;44799;53.382;14.666;2022-12-24T06:55:32;10.52;;;4.70;;
59014;SDS011;44799;53.382;14.666;2022-12-24T06:57:59;7.45;;;3.42;;
59014;SDS011;44799;53.382;14.666;2022-12-24T07:00:25;9.95;;;5.10;;
59014;SDS011;44799;53.382;14.666;2022-12-24T07:02:50;8.63;;;3.28;;
59014;SDS011;44799;53.382;14.666;2022-12-24T07:05:16;3.58;;;2.95;;
59014;SDS011;44799;53.382;14.666;2022-12-24T07:07:43;6.15;;;3.17;;
59014;SDS011;44799;53.382;14.666;2022-12-24T07:10:10;8.77;;;3.08;;
59014;SDS011;44799;53.382;14.666;2022-12-24T07:12:37;4.28;;;2.78;;
59014;SDS011;44799;53.382;14.666;2022-12-24T07:15:03;6.05;;;3.70;;
59014;SDS011;44799;53.382;14.666;2022-12-24T07:17:29;4.63;;;2.42;;
59014;SDS011;44799;53.382;14.666;2022-12-24T07:19:55;3.35;;;2.33;;
59014;SDS011;44799;53.382;14.666;2022-12-24T07:22:21;2.97;;;2.00;;
59014;SDS011;44799;53.382;14.666;2022-12-24T07:24:47;10.60;;;3.95;;
59014;SDS011;44799;53.382;14.666;2022-12-24T07:27:13;4.38;;;2.42;;
59014;SDS011;44799;53.382;14.666;2022-12-24T07:29:39;2.92;;;2.58;;
59014;SDS011;44799;53.382;14.666;2022-12-24T07:32:05;5.35;;;3.65;;
59014;SDS011;44799;53.382;14.666;2022-12-24T07:34:31;7.20;;;3.83;;
59014;SDS011;44799;53.382;14.666;2022-12-24T07:36:57;13.07;;;3.60;;
59014;SDS011;44799;53.382;14.666;2022-12-24T07:39:23;5.70;;;3.42;;
59014;SDS011;44799;53.382;14.666;2022-12-24T07:41:49;4.47;;;2.85;;
59014;SDS011;44799;53.382;14.666;2022-12-24T07:44:15;13.52;;;3.47;;
59014;SDS011;44799;53.382;14.666;2022-12-24T07:46:41;6.45;;;2.97;;
59014;SDS011;44799;53.382;14.666;2022-12-24T07:49:07;3.85;;;2.50;;
59014;SDS011;44799;53.382;14.666;2022-12-24T07:51:34;4.70;;;2.58;;
59014;SDS011;44799;53.382;14.666;2022-12-24T07:54:00;5.50;;;3.33;;
59014;SDS011;44799;53.382;14.666;2022-12-24T07:56:30;4.72;;;2.15;;
59014;SDS011;44799;53.382;14.666;2022-12-24T07:58:56;4.68;;;3.25;;
59014;SDS011;44799;53.382;14.666;2022-12-24T08:01:22;5.03;;;3.85;;
59014;SDS011;44799;53.382;14.666;2022-12-24T08:03:48;4.85;;;2.83;;
59014;SDS011;44799;53.382;14.666;2022-12-24T08:06:18;5.78;;;3.10;;
59014;SDS011;44799;53.382;14.666;2022-12-24T08:08:44;5.35;;;3.58;;
59014;SDS011;44799;53.382;14.666;2022-12-24T08:11:10;6.45;;;3.47;;
59014;SDS011;44799;53.382;14.666;2022-12-24T08:13:37;5.95;;;3.00;;
59014;SDS011;44799;53.382;14.666;2022-12-24T08:16:03;4.47;;;3.55;;
59014;SDS011;44799;53.382;14.666;2022-12-24T08:18:29;3.47;;;2.78;;
59014;SDS011;44799;53.382;14.666;2022-12-24T08:20:55;7.88;;;2.92;;
59014;SDS011;44799;53.382;14.666;2022-12-24T08:23:20;5.75;;;3.50;;
59014;SDS011;44799;53.382;14.666;2022-12-24T08:25:50;11.80;;;3.92;;
59014;SDS011;44799;53.382;14.666;2022-12-24T08:28:18;6.68;;;4.32;;
59014;SDS011;44799;53.382;14.666;2022-12-24T08:30:46;6.63;;;3.90;;
59014;SDS011;44799;53.382;14.666;2022-12-24T08:33:15;5.30;;;3.65;;
59014;SDS011;44799;53.382;14.666;2022-12-24T08:35:45;10.13;;;4.55;;
59014;SDS011;44799;53.382;14.666;2022-12-24T08:38:12;10.63;;;4.90;;
59014;SDS011;44799;53.382;14.666;2022-12-24T08:40:38;6.63;;;4.18;;
59014;SDS011;44799;53.382;14.666;2022-12-24T08:43:04;6.13;;;3.83;;
59014;SDS011;44799;53.382;14.666;2022-12-24T08:45:30;6.13;;;4.35;;
59014;SDS011;44799;53.382;14.666;2022-12-24T08:47:57;12.07;;;5.18;;
59014;SDS011;44799;53.382;14.666;2022-12-24T08:50:24;6.43;;;4.05;;
59014;SDS011;44799;53.382;14.666;2022-12-24T08:52:53;9.52;;;4.50;;
59014;SDS011;44799;53.382;14.666;2022-12-24T08:55:19;9.95;;;5.20;;
59014;SDS011;44799;53.382;14.666;2022-12-24T08:57:45;10.35;;;5.43;;
59014;SDS011;44799;53.382;14.666;2022-12-24T09:00:12;8.73;;;5.03;;
59014;SDS011;44799;53.382;14.666;2022-12-24T09:02:39;8.90;;;5.47;;
59014;SDS011;44799;53.382;14.666;2022-12-24T09:05:05;8.02;;;4.28;;
59014;SDS011;44799;53.382;14.666;2022-12-24T09:07:31;7.90;;;4.38;;
59014;SDS011;44799;53.382;14.666;2022-12-24T09:09:56;6.70;;;4.78;;
59014;SDS011;44799;53.382;14.666;2022-12-24T09:12:22;9.75;;;4.25;;
59014;SDS011;44799;53.382;14.666;2022-12-24T09:14:51;10.10;;;4.45;;
59014;SDS011;44799;53.382;14.666;2022-12-24T09:17:18;8.30;;;4.03;;
59014;SDS011;44799;53.382;14.666;2022-12-24T09:19:45;6.68;;;4.20;;
59014;SDS011;44799;53.382;14.666;2022-12-24T09:22:11;11.75;;;4.43;;
59014;SDS011;44799;53.382;14.666;2022-12-24T09:24:39;7.72;;;4.88;;
59014;SDS011;44799;53.382;14.666;2022-12-24T09:27:05;12.55;;;5.75;;
59014;SDS011;44799;53.382;14.666;2022-12-24T09:29:31;8.85;;;5.80;;
59014;SDS011;44799;53.382;14.666;2022-12-24T09:31:58;7.45;;;4.32;;
59014;SDS011;44799;53.382;14.666;2022-12-24T09:34:24;9.68;;;5.78;;
59014;SDS011;44799;53.382;14.666;2022-12-24T09:36:53;14.27;;;6.35;;
59014;SDS011;44799;53.382;14.666;2022-12-24T09:39:22;9.93;;;6.07;;
59014;SDS011;44799;53.382;14.666;2022-12-24T09:44:32;6.38;;;4.20;;
59014;SDS011;44799;53.382;14.666;2022-12-24T09:47:03;5.85;;;4.25;;
59014;SDS011;44799;53.382;14.666;2022-12-24T09:49:41;10.50;;;4.35;;
59014;SDS011;44799;53.382;14.666;2022-12-24T09:52:14;5.45;;;3.17;;
59014;SDS011;44799;53.382;14.666;2022-12-24T09:55:11;3.22;;;2.35;;
59014;SDS011;44799;53.382;14.666;2022-12-24T09:57:49;4.97;;;2.90;;
59014;SDS011;44799;53.382;14.666;2022-12-24T10:00:28;10.43;;;4.15;;
59014;SDS011;44799;53.382;14.666;2022-12-24T10:02:56;7.82;;;3.38;;
59014;SDS011;44799;53.382;14.666;2022-12-24T10:11:18;7.50;;;3.33;;
59014;SDS011;44799;53.382;14.666;2022-12-24T10:14:18;7.65;;;3.58;;
59014;SDS011;44799;53.382;14.666;2022-12-24T10:17:00;5.18;;;3.35;;
59014;SDS011;44799;53.382;14.666;2022-12-24T10:19:49;5.32;;;3.17;;
59014;SDS011;44799;53.382;14.666;2022-12-24T10:22:37;6.50;;;3.63;;
59014;SDS011;44799;53.382;14.666;2022-12-24T10:25:34;7.57;;;3.17;;
59014;SDS011;44799;53.382;14.666;2022-12-24T10:28:30;6.97;;;3.78;;
59014;SDS011;44799;53.382;14.666;2022-12-24T10:31:03;5.93;;;3.10;;
59014;SDS011;44799;53.382;14.666;2022-12-24T10:33:39;9.50;;;3.40;;
59014;SDS011;44799;53.382;14.666;2022-12-24T10:36:10;6.07;;;3.58;;
59014;SDS011;44799;53.382;14.666;2022-12-24T10:38:41;6.05;;;3.20;;
59014;SDS011;44799;53.382;14.666;2022-12-24T10:41:07;7.53;;;3.20;;
59014;SDS011;44799;53.382;14.666;2022-12-24T10:43:34;9.43;;;3.50;;
59014;SDS011;44799;53.382;14.666;2022-12-24T10:46:04;8.23;;;3.17;;
59014;SDS011;44799;53.382;14.666;2022-12-24T10:48:41;6.22;;;3.28;;
59014;SDS011;44799;53.382;14.666;2022-12-24T10:54:11;5.43;;;3.20;;
59014;SDS011;44799;53.382;14.666;2022-12-24T10:56:43;9.88;;;3.95;;
59014;SDS011;44799;53.382;14.666;2022-12-24T11:02:01;5.32;;;3.17;;
59014;SDS011;44799;53.382;14.666;2022-12-24T11:04:28;7.95;;;3.13;;
59014;SDS011;44799;53.382;14.666;2022-12-24T11:06:57;3.47;;;3.03;;
59014;SDS011;44799;53.382;14.666;2022-12-24T11:09:32;7.90;;;3.35;;
59014;SDS011;44799;53.382;14.666;2022-12-24T11:12:17;7.15;;;4.30;;
59014;SDS011;44799;53.382;14.666;2022-12-24T11:14:47;10.10;;;3.58;;
59014;SDS011;44799;53.382;14.666;2022-12-24T11:17:26;7.65;;;3.85;;
59014;SDS011;44799;53.382;14.666;2022-12-24T11:19:52;7.40;;;4.20;;
59014;SDS011;44799;53.382;14.666;2022-12-24T11:22:20;6.45;;;3.80;;
59014;SDS011;44799;53.382;14.666;2022-12-24T11:25:05;5.18;;;3.88;;
59014;SDS011;44799;53.382;14.666;2022-12-24T11:27:42;5.03;;;2.90;;
59014;SDS011;44799;53.382;14.666;2022-12-24T11:32:43;7.90;;;3.35;;
59014;SDS011;44799;53.382;14.666;2022-12-24T11:35:20;7.45;;;3.40;;
59014;SDS011;44799;53.382;14.666;2022-12-24T11:37:48;7.68;;;4.07;;
59014;SDS011;44799;53.382;14.666;2022-12-24T11:40:35;9.02;;;4.07;;
59014;SDS011;44799;53.382;14.666;2022-12-24T11:43:05;8.57;;;4.55;;
59014;SDS011;44799;53.382;14.666;2022-12-24T11:45:38;7.00;;;3.95;;
59014;SDS011;44799;53.382;14.666;2022-12-24T11:48:21;17.10;;;3.78;;
59014;SDS011;44799;53.382;14.666;2022-12-24T11:50:57;7.40;;;3.70;;
59014;SDS011;44799;53.382;14.666;2022-12-24T11:53:38;6.18;;;4.03;;
59014;SDS011;44799;53.382;14.666;2022-12-24T11:56:14;10.70;;;4.53;;
59014;SDS011;44799;53.382;14.666;2022-12-24T11:59:04;5.18;;;3.30;;
59014;SDS011;44799;53.382;14.666;2022-12-24T12:01:59;7.03;;;4.10;;
59014;SDS011;44799;53.382;14.666;2022-12-24T12:04:38;8.15;;;3.72;;
59014;SDS011;44799;53.382;14.666;2022-12-24T12:07:12;7.32;;;3.78;;
59014;SDS011;44799;53.382;14.666;2022-12-24T12:09:41;6.43;;;3.50;;
59014;SDS011;44799;53.382;14.666;2022-12-24T12:12:23;7.20;;;4.13;;
59014;SDS011;44799;53.382;14.666;2022-12-24T12:15:17;12.52;;;4.65;;
59014;SDS011;44799;53.382;14.666;2022-12-24T12:20:31;7.75;;;4.68;;
59014;SDS011;44799;53.382;14.666;2022-12-24T12:26:11;7.93;;;4.28;;
59014;SDS011;44799;53.382;14.666;2022-12-24T12:28:44;8.85;;;4.45;;
59014;SDS011;44799;53.382;14.666;2022-12-24T12:33:59;7.65;;;4.95;;
59014;SDS011;44799;53.382;14.666;2022-12-24T12:36:44;10.23;;;4.53;;
59014;SDS011;44799;53.382;14.666;2022-12-24T12:39:13;8.57;;;4.80;;
59014;SDS011;44799;53.382;14.666;2022-12-24T12:42:03;15.13;;;5.15;;
59014;SDS011;44799;53.382;14.666;2022-12-24T12:44:59;8.95;;;4.75;;
59014;SDS011;44799;53.382;14.666;2022-12-24T12:50:35;7.18;;;5.10;;
59014;SDS011;44799;53.382;14.666;2022-12-24T12:55:58;12.00;;;5.45;;
59014;SDS011;44799;53.382;14.666;2022-12-24T13:01:11;6.60;;;4.00;;
59014;SDS011;44799;53.382;14.666;2022-12-24T13:06:49;7.10;;;5.25;;
59014;SDS011;44799;53.382;14.666;2022-12-24T13:09:33;8.00;;;6.07;;
59014;SDS011;44799;53.382;14.666;2022-12-24T13:12:09;9.45;;;5.20;;
59014;SDS011;44799;53.382;14.666;2022-12-24T13:14:45;8.73;;;4.82;;
59014;SDS011;44799;53.382;14.666;2022-12-24T13:20:28;8.25;;;5.13;;
59014;SDS011;44799;53.382;14.666;2022-12-24T13:25:34;7.90;;;4.55;;
59014;SDS011;44799;53.382;14.666;2022-12-24T13:30:47;9.13;;;5.28;;
59014;SDS011;44799;53.382;14.666;2022-12-24T13:36:02;8.82;;;4.68;;
59014;SDS011;44799;53.382;14.666;2022-12-24T13:38:38;9.20;;;5.13;;
59014;SDS011;44799;53.382;14.666;2022-12-24T13:49:56;8.18;;;5.32;;
59014;SDS011;44799;53.382;14.666;2022-12-24T13:52:29;10.45;;;5.40;;
59014;SDS011;44799;53.382;14.666;2022-12-24T13:57:32;8.00;;;4.43;;
59014;SDS011;44799;53.382;14.666;2022-12-24T14:05:37;11.90;;;5.10;;
59014;SDS011;44799;53.382;14.666;2022-12-24T14:08:13;10.30;;;4.60;;
59014;SDS011;44799;53.382;14.666;2022-12-24T14:11:24;7.95;;;4.85;;
59014;SDS011;44799;53.382;14.666;2022-12-24T14:16:15;10.52;;;5.15;;
59014;SDS011;44799;53.382;14.666;2022-12-24T14:21:25;12.43;;;5.28;;
59014;SDS011;44799;53.382;14.666;2022-12-24T14:23:56;8.75;;;4.95;;
59014;SDS011;44799;53.382;14.666;2022-12-24T14:26:32;9.52;;;5.10;;
59014;SDS011;44799;53.382;14.666;2022-12-24T14:29:14;9.88;;;4.07;;
59014;SDS011;44799;53.382;14.666;2022-12-24T14:31:49;8.98;;;5.35;;
59014;SDS011;44799;53.382;14.666;2022-12-24T14:34:16;9.07;;;5.63;;
59014;SDS011;44799;53.382;14.666;2022-12-24T14:36:42;11.15;;;6.57;;
59014;SDS011;44799;53.382;14.666;2022-12-24T14:39:12;13.95;;;5.68;;
59014;SDS011;44799;53.382;14.666;2022-12-24T14:45:04;10.43;;;6.13;;
59014;SDS011;44799;53.382;14.666;2022-12-24T14:47:53;12.98;;;5.57;;
59014;SDS011;44799;53.382;14.666;2022-12-24T14:56:14;9.77;;;5.83;;
59014;SDS011;44799;53.382;14.666;2022-12-24T14:58:42;15.63;;;6.95;;
59014;SDS011;44799;53.382;14.666;2022-12-24T15:04:13;11.13;;;6.20;;
59014;SDS011;44799;53.382;14.666;2022-12-24T15:06:51;12.32;;;5.75;;
59014;SDS011;44799;53.382;14.666;2022-12-24T15:09:20;14.43;;;7.60;;
59014;SDS011;44799;53.382;14.666;2022-12-24T15:11:49;14.57;;;6.47;;
59014;SDS011;44799;53.382;14.666;2022-12-24T15:14:16;10.07;;;5.47;;
59014;SDS011;44799;53.382;14.666;2022-12-24T15:16:54;10.80;;;6.07;;
59014;SDS011;44799;53.382;14.666;2022-12-24T15:19:37;16.70;;;6.05;;
59014;SDS011;44799;53.382;14.666;2022-12-24T15:22:26;13.07;;;5.78;;
59014;SDS011;44799;53.382;14.666;2022-12-24T15:24:55;12.43;;;5.68;;
59014;SDS011;44799;53.382;14.666;2022-12-24T15:27:22;13.88;;;7.63;;
59014;SDS011;44799;53.382;14.666;2022-12-24T15:29:51;19.60;;;7.55;;
59014;SDS011;44799;53.382;14.666;2022-12-24T15:32:22;9.50;;;5.03;;
59014;SDS011;44799;53.382;14.666;2022-12-24T15:34:49;10.02;;;5.13;;
59014;SDS011;44799;53.382;14.666;2022-12-24T15:39:53;10.80;;;6.30;;
59014;SDS011;44799;53.382;14.666;2022-12-24T15:42:21;8.83;;;5.30;;
59014;SDS011;44799;53.382;14.666;2022-12-24T15:44:55;10.48;;;5.82;;
59014;SDS011;44799;53.382;14.666;2022-12-24T15:47:26;9.85;;;5.07;;
59014;SDS011;44799;53.382;14.666;2022-12-24T15:50:02;10.73;;;5.35;;
59014;SDS011;44799;53.382;14.666;2022-12-24T15:52:47;10.48;;;4.75;;
59014;SDS011;44799;53.382;14.666;2022-12-24T15:55:24;11.65;;;5.60;;
59014;SDS011;44799;53.382;14.666;2022-12-24T15:57:50;7.63;;;4.38;;
59014;SDS011;44799;53.382;14.666;2022-12-24T16:00:23;13.50;;;6.68;;
59014;SDS011;44799;53.382;14.666;2022-12-24T16:02:55;10.88;;;5.18;;
59014;SDS011;44799;53.382;14.666;2022-12-24T16:05:44;7.88;;;3.95;;
59014;SDS011;44799;53.382;14.666;2022-12-24T16:10:41;9.98;;;5.82;;
59014;SDS011;44799;53.382;14.666;2022-12-24T16:15:46;11.80;;;5.57;;
59014;SDS011;44799;53.382;14.666;2022-12-24T16:18:16;8.05;;;4.93;;
59014;SDS011;44799;53.382;14.666;2022-12-24T16:20:50;9.63;;;5.60;;
59014;SDS011;44799;53.382;14.666;2022-12-24T16:23:20;9.07;;;6.15;;
59014;SDS011;44799;53.382;14.666;2022-12-24T16:25:49;8.85;;;4.63;;
59014;SDS011;44799;53.382;14.666;2022-12-24T16:28:17;13.15;;;5.97;;
59014;SDS011;44799;53.382;14.666;2022-12-24T16:30:44;8.25;;;4.15;;
59014;SDS011;44799;53.382;14.666;2022-12-24T16:33:14;13.00;;;5.82;;
59014;SDS011;44799;53.382;14.666;2022-12-24T16:35:42;13.25;;;5.70;;
59014;SDS011;44799;53.382;14.666;2022-12-24T16:38:09;12.25;;;6.13;;
59014;SDS011;44799;53.382;14.666;2022-12-24T16:40:35;9.43;;;6.20;;
59014;SDS011;44799;53.382;14.666;2022-12-24T16:43:01;13.90;;;5.93;;
59014;SDS011;44799;53.382;14.666;2022-12-24T16:45:45;17.10;;;7.90;;